sensor_id;sensor_type;location;lat;lon;timestamp;P1;durP1;ratioP1;P2;durP2;ratioP2
52730;SDS011;38624;53.242;6.974;2022-07-12T00:01:06;10.45;;;9.15;;
52730;SDS011;38624;53.242;6.974;2022-07-12T00:03:32;9.97;;;8.60;;
52730;SDS011;38624;53.242;6.974;2022-07-12T00:05:58;11.52;;;9.75;;
52730;SDS011;38624;53.242;6.974;2022-07-12T00:08:24;11.27;;;9.87;;
52730;SDS011;38624;53.242;6.974;2022-07-12T00:10:50;11.80;;;9.93;;
52730;SDS011;38624;53.242;6.974;2022-07-12T00:13:16;12.87;;;9.70;;
52730;SDS011;38624;53.242;6.974;2022-07-12T00:15:42;13.70;;;11.00;;
52730;SDS011;38624;53.242;6.974;2022-07-12T00:18:09;14.07;;;11.15;;
52730;SDS011;38624;53.242;6.974;2022-07-12T00:20:35;15.80;;;11.48;;
52730;SDS011;38624;53.242;6.974;2022-07-12T00:23:01;14.68;;;12.43;;
52730;SDS011;38624;53.242;6.974;2022-07-12T00:25:27;14.80;;;12.13;;
52730;SDS011;38624;53.242;6.974;2022-07-12T00:27:52;14.90;;;12.70;;
52730;SDS011;38624;53.242;6.974;2022-07-12T00:30:18;13.30;;;11.30;;
52730;SDS011;38624;53.242;6.974;2022-07-12T00:32:44;13.68;;;10.23;;
52730;SDS011;38624;53.242;6.974;2022-07-12T00:35:10;15.20;;;12.30;;
52730;SDS011;38624;53.242;6.974;2022-07-12T00:37:36;14.77;;;12.00;;
52730;SDS011;38624;53.242;6.974;2022-07-12T00:40:04;13.50;;;10.90;;
52730;SDS011;38624;53.242;6.974;2022-07-12T00:42:38;15.90;;;11.18;;
52730;SDS011;38624;53.242;6.974;2022-07-12T00:45:04;15.30;;;11.85;;
52730;SDS011;38624;53.242;6.974;2022-07-12T00:47:32;17.33;;;12.77;;
52730;SDS011;38624;53.242;6.974;2022-07-12T00:50:19;16.67;;;12.77;;
52730;SDS011;38624;53.242;6.974;2022-07-12T00:52:47;14.30;;;11.73;;
52730;SDS011;38624;53.242;6.974;2022-07-12T00:55:14;13.23;;;11.05;;
52730;SDS011;38624;53.242;6.974;2022-07-12T01:00:09;13.00;;;9.85;;
52730;SDS011;38624;53.242;6.974;2022-07-12T01:02:37;11.25;;;9.88;;
52730;SDS011;38624;53.242;6.974;2022-07-12T01:05:04;12.23;;;10.82;;
52730;SDS011;38624;53.242;6.974;2022-07-12T01:07:32;13.55;;;10.52;;
52730;SDS011;38624;53.242;6.974;2022-07-12T01:09:58;13.60;;;10.55;;
52730;SDS011;38624;53.242;6.974;2022-07-12T01:12:24;12.20;;;10.43;;
52730;SDS011;38624;53.242;6.974;2022-07-12T01:14:50;12.55;;;10.30;;
52730;SDS011;38624;53.242;6.974;2022-07-12T01:17:20;13.52;;;10.85;;
52730;SDS011;38624;53.242;6.974;2022-07-12T01:19:47;13.10;;;10.63;;
52730;SDS011;38624;53.242;6.974;2022-07-12T01:22:14;14.43;;;12.15;;
52730;SDS011;38624;53.242;6.974;2022-07-12T01:24:42;14.38;;;12.15;;
52730;SDS011;38624;53.242;6.974;2022-07-12T01:27:11;16.02;;;13.38;;
52730;SDS011;38624;53.242;6.974;2022-07-12T01:29:38;17.27;;;13.45;;
52730;SDS011;38624;53.242;6.974;2022-07-12T01:32:04;20.48;;;15.00;;
52730;SDS011;38624;53.242;6.974;2022-07-12T01:34:53;16.42;;;13.73;;
52730;SDS011;38624;53.242;6.974;2022-07-12T01:37:44;17.20;;;13.75;;
52730;SDS011;38624;53.242;6.974;2022-07-12T01:40:11;13.63;;;11.63;;
52730;SDS011;38624;53.242;6.974;2022-07-12T01:42:38;13.30;;;11.23;;
52730;SDS011;38624;53.242;6.974;2022-07-12T01:45:05;13.90;;;11.50;;
52730;SDS011;38624;53.242;6.974;2022-07-12T01:47:32;14.77;;;11.68;;
52730;SDS011;38624;53.242;6.974;2022-07-12T01:49:59;15.10;;;11.48;;
52730;SDS011;38624;53.242;6.974;2022-07-12T01:54:52;13.57;;;11.30;;
52730;SDS011;38624;53.242;6.974;2022-07-12T01:57:19;14.80;;;12.13;;
52730;SDS011;38624;53.242;6.974;2022-07-12T01:59:46;14.43;;;12.55;;
52730;SDS011;38624;53.242;6.974;2022-07-12T02:02:11;16.83;;;13.30;;
52730;SDS011;38624;53.242;6.974;2022-07-12T02:04:37;18.33;;;13.73;;
52730;SDS011;38624;53.242;6.974;2022-07-12T02:07:03;15.77;;;13.30;;
52730;SDS011;38624;53.242;6.974;2022-07-12T02:09:30;16.10;;;13.05;;
52730;SDS011;38624;53.242;6.974;2022-07-12T02:11:56;16.08;;;12.75;;
52730;SDS011;38624;53.242;6.974;2022-07-12T02:14:23;15.32;;;12.48;;
52730;SDS011;38624;53.242;6.974;2022-07-12T02:16:48;17.80;;;12.90;;
52730;SDS011;38624;53.242;6.974;2022-07-12T02:19:14;16.77;;;13.30;;
52730;SDS011;38624;53.242;6.974;2022-07-12T02:21:40;16.43;;;12.80;;
52730;SDS011;38624;53.242;6.974;2022-07-12T02:24:06;15.40;;;12.57;;
52730;SDS011;38624;53.242;6.974;2022-07-12T02:26:32;15.50;;;12.20;;
52730;SDS011;38624;53.242;6.974;2022-07-12T02:29:00;15.18;;;11.90;;
52730;SDS011;38624;53.242;6.974;2022-07-12T02:31:26;15.38;;;11.45;;
52730;SDS011;38624;53.242;6.974;2022-07-12T02:33:52;16.23;;;12.83;;
52730;SDS011;38624;53.242;6.974;2022-07-12T02:36:18;14.23;;;11.67;;
52730;SDS011;38624;53.242;6.974;2022-07-12T02:38:43;15.60;;;12.13;;
52730;SDS011;38624;53.242;6.974;2022-07-12T02:41:09;16.80;;;12.40;;
52730;SDS011;38624;53.242;6.974;2022-07-12T02:43:35;15.60;;;11.50;;
52730;SDS011;38624;53.242;6.974;2022-07-12T02:46:10;14.93;;;10.27;;
52730;SDS011;38624;53.242;6.974;2022-07-12T02:48:37;13.95;;;10.30;;
52730;SDS011;38624;53.242;6.974;2022-07-12T02:51:04;11.75;;;9.55;;
52730;SDS011;38624;53.242;6.974;2022-07-12T02:53:30;12.05;;;9.75;;
52730;SDS011;38624;53.242;6.974;2022-07-12T02:55:57;15.02;;;9.60;;
52730;SDS011;38624;53.242;6.974;2022-07-12T02:58:23;13.77;;;9.53;;
52730;SDS011;38624;53.242;6.974;2022-07-12T03:00:48;12.40;;;8.93;;
52730;SDS011;38624;53.242;6.974;2022-07-12T03:03:14;13.07;;;8.83;;
52730;SDS011;38624;53.242;6.974;2022-07-12T03:05:41;13.65;;;9.95;;
52730;SDS011;38624;53.242;6.974;2022-07-12T03:08:07;12.13;;;9.00;;
52730;SDS011;38624;53.242;6.974;2022-07-12T03:13:00;13.10;;;9.43;;
52730;SDS011;38624;53.242;6.974;2022-07-12T03:15:26;13.07;;;9.70;;
52730;SDS011;38624;53.242;6.974;2022-07-12T03:17:53;14.27;;;9.52;;
52730;SDS011;38624;53.242;6.974;2022-07-12T03:20:19;14.15;;;9.65;;
52730;SDS011;38624;53.242;6.974;2022-07-12T03:22:44;15.03;;;9.77;;
52730;SDS011;38624;53.242;6.974;2022-07-12T03:25:13;15.85;;;9.52;;
52730;SDS011;38624;53.242;6.974;2022-07-12T03:27:39;16.85;;;9.55;;
52730;SDS011;38624;53.242;6.974;2022-07-12T03:30:06;13.48;;;9.80;;
52730;SDS011;38624;53.242;6.974;2022-07-12T03:32:33;13.35;;;10.23;;
52730;SDS011;38624;53.242;6.974;2022-07-12T03:34:59;12.57;;;9.80;;
52730;SDS011;38624;53.242;6.974;2022-07-12T03:37:25;12.10;;;9.27;;
52730;SDS011;38624;53.242;6.974;2022-07-12T03:39:50;12.53;;;9.20;;
52730;SDS011;38624;53.242;6.974;2022-07-12T03:42:16;12.00;;;9.27;;
52730;SDS011;38624;53.242;6.974;2022-07-12T03:47:09;12.60;;;9.30;;
52730;SDS011;38624;53.242;6.974;2022-07-12T03:49:34;12.37;;;9.00;;
52730;SDS011;38624;53.242;6.974;2022-07-12T03:52:00;11.53;;;8.97;;
52730;SDS011;38624;53.242;6.974;2022-07-12T03:54:27;11.10;;;8.15;;
52730;SDS011;38624;53.242;6.974;2022-07-12T03:56:53;11.13;;;8.40;;
52730;SDS011;38624;53.242;6.974;2022-07-12T03:59:38;9.82;;;7.25;;
52730;SDS011;38624;53.242;6.974;2022-07-12T04:02:04;11.07;;;8.23;;
52730;SDS011;38624;53.242;6.974;2022-07-12T04:04:29;10.33;;;7.90;;
52730;SDS011;38624;53.242;6.974;2022-07-12T04:06:55;9.93;;;7.60;;
52730;SDS011;38624;53.242;6.974;2022-07-12T04:09:21;8.27;;;7.27;;
52730;SDS011;38624;53.242;6.974;2022-07-12T04:11:46;9.43;;;7.73;;
52730;SDS011;38624;53.242;6.974;2022-07-12T04:14:12;11.57;;;8.33;;
52730;SDS011;38624;53.242;6.974;2022-07-12T04:16:38;9.33;;;8.03;;
52730;SDS011;38624;53.242;6.974;2022-07-12T04:19:04;11.52;;;8.65;;
52730;SDS011;38624;53.242;6.974;2022-07-12T04:21:30;11.40;;;8.87;;
52730;SDS011;38624;53.242;6.974;2022-07-12T04:23:57;11.07;;;8.15;;
52730;SDS011;38624;53.242;6.974;2022-07-12T04:26:22;10.13;;;7.93;;
52730;SDS011;38624;53.242;6.974;2022-07-12T04:28:48;9.93;;;7.83;;
52730;SDS011;38624;53.242;6.974;2022-07-12T04:31:14;12.60;;;7.97;;
52730;SDS011;38624;53.242;6.974;2022-07-12T04:33:39;12.60;;;8.33;;
52730;SDS011;38624;53.242;6.974;2022-07-12T04:36:05;11.80;;;8.90;;
52730;SDS011;38624;53.242;6.974;2022-07-12T04:38:31;12.03;;;8.57;;
52730;SDS011;38624;53.242;6.974;2022-07-12T04:40:57;15.17;;;9.10;;
52730;SDS011;38624;53.242;6.974;2022-07-12T04:43:23;17.00;;;8.90;;
52730;SDS011;38624;53.242;6.974;2022-07-12T04:45:49;17.20;;;9.43;;
52730;SDS011;38624;53.242;6.974;2022-07-12T04:48:18;16.65;;;9.07;;
52730;SDS011;38624;53.242;6.974;2022-07-12T04:50:43;15.60;;;9.00;;
52730;SDS011;38624;53.242;6.974;2022-07-12T04:53:10;20.25;;;10.50;;
52730;SDS011;38624;53.242;6.974;2022-07-12T04:55:36;21.00;;;10.17;;
52730;SDS011;38624;53.242;6.974;2022-07-12T04:58:02;20.77;;;10.13;;
52730;SDS011;38624;53.242;6.974;2022-07-12T05:00:29;30.02;;;10.73;;
52730;SDS011;38624;53.242;6.974;2022-07-12T05:02:55;83.30;;;32.30;;
52730;SDS011;38624;53.242;6.974;2022-07-12T05:05:21;90.43;;;33.20;;
52730;SDS011;38624;53.242;6.974;2022-07-12T05:07:46;117.07;;;35.43;;
52730;SDS011;38624;53.242;6.974;2022-07-12T05:10:12;110.00;;;37.83;;
52730;SDS011;38624;53.242;6.974;2022-07-12T05:12:38;104.97;;;36.83;;
52730;SDS011;38624;53.242;6.974;2022-07-12T05:15:04;84.67;;;32.67;;
52730;SDS011;38624;53.242;6.974;2022-07-12T05:17:31;76.82;;;31.52;;
52730;SDS011;38624;53.242;6.974;2022-07-12T05:19:57;81.27;;;32.03;;
52730;SDS011;38624;53.242;6.974;2022-07-12T05:22:23;82.67;;;33.30;;
52730;SDS011;38624;53.242;6.974;2022-07-12T05:24:49;76.27;;;30.40;;
52730;SDS011;38624;53.242;6.974;2022-07-12T05:27:14;61.57;;;26.50;;
52730;SDS011;38624;53.242;6.974;2022-07-12T05:29:40;53.97;;;24.20;;
52730;SDS011;38624;53.242;6.974;2022-07-12T05:32:06;67.83;;;27.03;;
52730;SDS011;38624;53.242;6.974;2022-07-12T05:34:32;60.10;;;25.33;;
52730;SDS011;38624;53.242;6.974;2022-07-12T05:36:58;54.30;;;21.93;;
52730;SDS011;38624;53.242;6.974;2022-07-12T05:39:24;40.08;;;17.42;;
52730;SDS011;38624;53.242;6.974;2022-07-12T05:41:50;29.20;;;15.17;;
52730;SDS011;38624;53.242;6.974;2022-07-12T05:44:16;31.70;;;14.10;;
52730;SDS011;38624;53.242;6.974;2022-07-12T05:46:47;23.38;;;12.30;;
52730;SDS011;38624;53.242;6.974;2022-07-12T05:49:13;23.90;;;11.60;;
52730;SDS011;38624;53.242;6.974;2022-07-12T05:51:39;22.60;;;11.20;;
52730;SDS011;38624;53.242;6.974;2022-07-12T05:54:23;18.58;;;8.98;;
52730;SDS011;38624;53.242;6.974;2022-07-12T05:56:49;15.20;;;8.07;;
52730;SDS011;38624;53.242;6.974;2022-07-12T05:59:16;20.30;;;8.27;;
52730;SDS011;38624;53.242;6.974;2022-07-12T06:01:42;12.52;;;7.45;;
52730;SDS011;38624;53.242;6.974;2022-07-12T06:04:08;19.70;;;7.27;;
52730;SDS011;38624;53.242;6.974;2022-07-12T06:06:34;18.40;;;7.87;;
52730;SDS011;38624;53.242;6.974;2022-07-12T06:08:59;12.87;;;7.20;;
52730;SDS011;38624;53.242;6.974;2022-07-12T06:11:25;11.37;;;6.40;;
52730;SDS011;38624;53.242;6.974;2022-07-12T06:13:52;12.02;;;7.18;;
52730;SDS011;38624;53.242;6.974;2022-07-12T06:16:18;12.00;;;6.33;;
52730;SDS011;38624;53.242;6.974;2022-07-12T06:18:43;12.83;;;6.87;;
52730;SDS011;38624;53.242;6.974;2022-07-12T06:21:09;9.27;;;6.00;;
52730;SDS011;38624;53.242;6.974;2022-07-12T06:23:35;7.07;;;5.50;;
52730;SDS011;38624;53.242;6.974;2022-07-12T06:26:00;7.97;;;6.13;;
52730;SDS011;38624;53.242;6.974;2022-07-12T06:28:27;10.18;;;6.68;;
52730;SDS011;38624;53.242;6.974;2022-07-12T06:30:53;10.18;;;6.22;;
52730;SDS011;38624;53.242;6.974;2022-07-12T06:33:18;7.60;;;6.17;;
52730;SDS011;38624;53.242;6.974;2022-07-12T06:35:44;8.13;;;6.70;;
52730;SDS011;38624;53.242;6.974;2022-07-12T06:38:10;8.40;;;6.27;;
52730;SDS011;38624;53.242;6.974;2022-07-12T06:40:35;7.37;;;6.57;;
52730;SDS011;38624;53.242;6.974;2022-07-12T06:43:01;8.43;;;6.10;;
52730;SDS011;38624;53.242;6.974;2022-07-12T06:45:27;7.70;;;6.20;;
52730;SDS011;38624;53.242;6.974;2022-07-12T06:47:53;7.50;;;6.53;;
52730;SDS011;38624;53.242;6.974;2022-07-12T06:50:19;7.73;;;6.70;;
52730;SDS011;38624;53.242;6.974;2022-07-12T06:52:44;7.73;;;6.50;;
52730;SDS011;38624;53.242;6.974;2022-07-12T06:55:10;6.67;;;5.97;;
52730;SDS011;38624;53.242;6.974;2022-07-12T06:57:36;7.07;;;5.87;;
52730;SDS011;38624;53.242;6.974;2022-07-12T07:00:03;8.52;;;6.82;;
52730;SDS011;38624;53.242;6.974;2022-07-12T07:02:30;9.02;;;7.43;;
52730;SDS011;38624;53.242;6.974;2022-07-12T07:04:56;9.27;;;7.30;;
52730;SDS011;38624;53.242;6.974;2022-07-12T07:07:22;9.60;;;8.07;;
52730;SDS011;38624;53.242;6.974;2022-07-12T07:09:48;9.10;;;7.40;;
52730;SDS011;38624;53.242;6.974;2022-07-12T07:12:13;9.63;;;8.20;;
52730;SDS011;38624;53.242;6.974;2022-07-12T07:14:39;8.53;;;7.27;;
52730;SDS011;38624;53.242;6.974;2022-07-12T07:17:05;10.40;;;7.77;;
52730;SDS011;38624;53.242;6.974;2022-07-12T07:19:30;9.90;;;7.80;;
52730;SDS011;38624;53.242;6.974;2022-07-12T07:21:56;12.73;;;8.57;;
52730;SDS011;38624;53.242;6.974;2022-07-12T07:24:23;9.48;;;7.88;;
52730;SDS011;38624;53.242;6.974;2022-07-12T07:26:49;10.03;;;7.70;;
52730;SDS011;38624;53.242;6.974;2022-07-12T07:29:15;10.20;;;7.88;;
52730;SDS011;38624;53.242;6.974;2022-07-12T07:31:59;9.75;;;7.88;;
52730;SDS011;38624;53.242;6.974;2022-07-12T07:34:25;9.60;;;8.17;;
52730;SDS011;38624;53.242;6.974;2022-07-12T07:36:52;10.05;;;8.48;;
52730;SDS011;38624;53.242;6.974;2022-07-12T07:39:18;9.85;;;8.45;;
52730;SDS011;38624;53.242;6.974;2022-07-12T07:44:10;9.55;;;8.25;;
52730;SDS011;38624;53.242;6.974;2022-07-12T07:46:36;10.87;;;8.47;;
52730;SDS011;38624;53.242;6.974;2022-07-12T07:49:01;10.40;;;8.40;;
52730;SDS011;38624;53.242;6.974;2022-07-12T07:51:27;10.48;;;8.55;;
52730;SDS011;38624;53.242;6.974;2022-07-12T07:53:53;9.10;;;7.33;;
52730;SDS011;38624;53.242;6.974;2022-07-12T07:56:19;8.80;;;7.33;;
52730;SDS011;38624;53.242;6.974;2022-07-12T07:58:44;8.97;;;6.97;;
52730;SDS011;38624;53.242;6.974;2022-07-12T08:01:10;8.53;;;7.07;;
52730;SDS011;38624;53.242;6.974;2022-07-12T08:03:36;11.80;;;7.77;;
52730;SDS011;38624;53.242;6.974;2022-07-12T08:06:02;11.03;;;8.20;;
52730;SDS011;38624;53.242;6.974;2022-07-12T08:08:27;8.47;;;7.57;;
52730;SDS011;38624;53.242;6.974;2022-07-12T08:10:53;9.60;;;7.40;;
52730;SDS011;38624;53.242;6.974;2022-07-12T08:13:20;8.02;;;6.55;;
52730;SDS011;38624;53.242;6.974;2022-07-12T08:15:45;9.10;;;7.17;;
52730;SDS011;38624;53.242;6.974;2022-07-12T08:18:11;8.10;;;6.63;;
52730;SDS011;38624;53.242;6.974;2022-07-12T08:20:38;7.32;;;6.40;;
52730;SDS011;38624;53.242;6.974;2022-07-12T08:23:03;8.83;;;6.87;;
52730;SDS011;38624;53.242;6.974;2022-07-12T08:25:29;7.10;;;6.13;;
52730;SDS011;38624;53.242;6.974;2022-07-12T08:27:55;7.03;;;6.17;;
52730;SDS011;38624;53.242;6.974;2022-07-12T08:30:22;7.82;;;6.35;;
52730;SDS011;38624;53.242;6.974;2022-07-12T08:32:47;7.40;;;5.75;;
52730;SDS011;38624;53.242;6.974;2022-07-12T08:35:13;6.33;;;5.50;;
52730;SDS011;38624;53.242;6.974;2022-07-12T08:37:39;7.60;;;5.65;;
52730;SDS011;38624;53.242;6.974;2022-07-12T08:42:32;7.47;;;5.82;;
52730;SDS011;38624;53.242;6.974;2022-07-12T08:44:59;6.97;;;5.50;;
52730;SDS011;38624;53.242;6.974;2022-07-12T08:47:24;6.43;;;5.38;;
52730;SDS011;38624;53.242;6.974;2022-07-12T08:50:10;6.70;;;5.20;;
52730;SDS011;38624;53.242;6.974;2022-07-12T08:52:44;7.03;;;5.53;;
52730;SDS011;38624;53.242;6.974;2022-07-12T08:57:57;10.13;;;5.38;;
52730;SDS011;38624;53.242;6.974;2022-07-12T09:00:25;7.22;;;5.60;;
52730;SDS011;38624;53.242;6.974;2022-07-12T09:02:53;7.32;;;4.80;;
52730;SDS011;38624;53.242;6.974;2022-07-12T09:05:24;7.82;;;5.97;;
52730;SDS011;38624;53.242;6.974;2022-07-12T09:07:51;9.35;;;5.88;;
52730;SDS011;38624;53.242;6.974;2022-07-12T09:10:30;9.57;;;6.13;;
52730;SDS011;38624;53.242;6.974;2022-07-12T09:12:57;8.00;;;5.00;;
52730;SDS011;38624;53.242;6.974;2022-07-12T09:15:23;9.27;;;5.40;;
52730;SDS011;38624;53.242;6.974;2022-07-12T09:17:56;8.85;;;5.40;;
52730;SDS011;38624;53.242;6.974;2022-07-12T09:20:33;8.05;;;5.30;;
52730;SDS011;38624;53.242;6.974;2022-07-12T09:23:03;7.55;;;5.18;;
52730;SDS011;38624;53.242;6.974;2022-07-12T09:25:32;7.50;;;5.50;;
52730;SDS011;38624;53.242;6.974;2022-07-12T09:27:58;7.78;;;4.55;;
52730;SDS011;38624;53.242;6.974;2022-07-12T09:30:28;6.00;;;4.78;;
52730;SDS011;38624;53.242;6.974;2022-07-12T09:32:56;5.80;;;4.70;;
52730;SDS011;38624;53.242;6.974;2022-07-12T09:35:42;8.52;;;5.35;;
52730;SDS011;38624;53.242;6.974;2022-07-12T09:38:35;9.23;;;5.35;;
52730;SDS011;38624;53.242;6.974;2022-07-12T09:41:10;6.45;;;4.13;;
52730;SDS011;38624;53.242;6.974;2022-07-12T09:43:43;10.18;;;4.70;;
52730;SDS011;38624;53.242;6.974;2022-07-12T09:46:10;6.47;;;4.28;;
52730;SDS011;38624;53.242;6.974;2022-07-12T09:48:36;5.75;;;3.70;;
52730;SDS011;38624;53.242;6.974;2022-07-12T09:51:02;6.22;;;4.55;;
52730;SDS011;38624;53.242;6.974;2022-07-12T09:53:32;6.70;;;4.43;;
52730;SDS011;38624;53.242;6.974;2022-07-12T09:56:03;5.15;;;3.80;;
52730;SDS011;38624;53.242;6.974;2022-07-12T09:58:31;6.53;;;4.03;;
52730;SDS011;38624;53.242;6.974;2022-07-12T10:01:03;10.63;;;4.50;;
52730;SDS011;38624;53.242;6.974;2022-07-12T10:03:32;5.50;;;3.92;;
52730;SDS011;38624;53.242;6.974;2022-07-12T10:06:00;5.15;;;4.28;;
52730;SDS011;38624;53.242;6.974;2022-07-12T10:08:27;5.63;;;3.80;;
52730;SDS011;38624;53.242;6.974;2022-07-12T10:10:54;4.88;;;4.07;;
52730;SDS011;38624;53.242;6.974;2022-07-12T10:13:20;4.43;;;3.40;;
52730;SDS011;38624;53.242;6.974;2022-07-12T10:15:47;6.03;;;4.05;;
52730;SDS011;38624;53.242;6.974;2022-07-12T10:18:17;6.32;;;4.00;;
52730;SDS011;38624;53.242;6.974;2022-07-12T10:20:47;5.38;;;3.95;;
52730;SDS011;38624;53.242;6.974;2022-07-12T10:25:45;4.53;;;3.50;;
52730;SDS011;38624;53.242;6.974;2022-07-12T10:28:13;4.35;;;3.08;;
52730;SDS011;38624;53.242;6.974;2022-07-12T10:30:43;4.60;;;3.03;;
52730;SDS011;38624;53.242;6.974;2022-07-12T10:33:20;5.35;;;2.80;;
52730;SDS011;38624;53.242;6.974;2022-07-12T10:36:00;3.42;;;2.50;;
52730;SDS011;38624;53.242;6.974;2022-07-12T10:38:26;3.38;;;2.40;;
52730;SDS011;38624;53.242;6.974;2022-07-12T10:40:53;3.10;;;2.50;;
52730;SDS011;38624;53.242;6.974;2022-07-12T10:43:26;3.78;;;2.47;;
52730;SDS011;38624;53.242;6.974;2022-07-12T10:46:18;3.80;;;2.33;;
52730;SDS011;38624;53.242;6.974;2022-07-12T10:48:49;3.33;;;2.05;;
52730;SDS011;38624;53.242;6.974;2022-07-12T10:51:16;4.05;;;2.13;;
52730;SDS011;38624;53.242;6.974;2022-07-12T10:53:45;3.80;;;1.90;;
52730;SDS011;38624;53.242;6.974;2022-07-12T10:58:51;3.95;;;1.77;;
52730;SDS011;38624;53.242;6.974;2022-07-12T11:01:29;1.88;;;1.55;;
52730;SDS011;38624;53.242;6.974;2022-07-12T11:04:06;2.00;;;1.73;;
52730;SDS011;38624;53.242;6.974;2022-07-12T11:06:37;3.22;;;1.63;;
52730;SDS011;38624;53.242;6.974;2022-07-12T11:09:10;3.10;;;1.63;;
52730;SDS011;38624;53.242;6.974;2022-07-12T11:11:40;2.80;;;1.55;;
52730;SDS011;38624;53.242;6.974;2022-07-12T11:14:11;2.70;;;1.30;;
52730;SDS011;38624;53.242;6.974;2022-07-12T11:16:45;2.97;;;2.00;;
52730;SDS011;38624;53.242;6.974;2022-07-12T11:19:12;4.53;;;1.77;;
52730;SDS011;38624;53.242;6.974;2022-07-12T11:21:38;3.17;;;1.90;;
52730;SDS011;38624;53.242;6.974;2022-07-12T11:24:20;2.15;;;1.48;;
52730;SDS011;38624;53.242;6.974;2022-07-12T11:26:47;2.70;;;1.50;;
52730;SDS011;38624;53.242;6.974;2022-07-12T11:29:13;1.80;;;1.33;;
52730;SDS011;38624;53.242;6.974;2022-07-12T11:31:39;3.38;;;1.33;;
52730;SDS011;38624;53.242;6.974;2022-07-12T11:34:04;2.80;;;1.13;;
52730;SDS011;38624;53.242;6.974;2022-07-12T11:36:30;1.60;;;1.27;;
52730;SDS011;38624;53.242;6.974;2022-07-12T11:38:57;2.15;;;1.40;;
52730;SDS011;38624;53.242;6.974;2022-07-12T11:41:23;2.63;;;1.20;;
52730;SDS011;38624;53.242;6.974;2022-07-12T11:46:15;2.25;;;1.13;;
52730;SDS011;38624;53.242;6.974;2022-07-12T11:48:41;1.80;;;1.20;;
52730;SDS011;38624;53.242;6.974;2022-07-12T11:51:10;2.42;;;1.10;;
52730;SDS011;38624;53.242;6.974;2022-07-12T11:53:38;2.40;;;1.20;;
52730;SDS011;38624;53.242;6.974;2022-07-12T11:56:05;1.67;;;1.00;;
52730;SDS011;38624;53.242;6.974;2022-07-12T11:58:33;1.33;;;1.10;;
52730;SDS011;38624;53.242;6.974;2022-07-12T12:01:02;1.55;;;1.02;;
52730;SDS011;38624;53.242;6.974;2022-07-12T12:03:29;0.80;;;0.80;;
52730;SDS011;38624;53.242;6.974;2022-07-12T12:08:21;1.02;;;0.88;;
52730;SDS011;38624;53.242;6.974;2022-07-12T12:13:21;2.25;;;1.00;;
52730;SDS011;38624;53.242;6.974;2022-07-12T12:15:51;1.95;;;0.85;;
52730;SDS011;38624;53.242;6.974;2022-07-12T12:18:34;1.13;;;0.80;;
52730;SDS011;38624;53.242;6.974;2022-07-12T12:21:08;1.77;;;0.95;;
52730;SDS011;38624;53.242;6.974;2022-07-12T12:23:35;1.05;;;0.80;;
52730;SDS011;38624;53.242;6.974;2022-07-12T12:26:16;1.15;;;0.80;;
52730;SDS011;38624;53.242;6.974;2022-07-12T12:28:47;1.90;;;0.98;;
52730;SDS011;38624;53.242;6.974;2022-07-12T12:31:15;0.80;;;0.80;;
52730;SDS011;38624;53.242;6.974;2022-07-12T12:33:49;3.53;;;0.93;;
52730;SDS011;38624;53.242;6.974;2022-07-12T12:36:25;1.27;;;0.90;;
52730;SDS011;38624;53.242;6.974;2022-07-12T12:38:52;2.25;;;0.85;;
52730;SDS011;38624;53.242;6.974;2022-07-12T12:41:22;2.30;;;0.90;;
52730;SDS011;38624;53.242;6.974;2022-07-12T12:43:56;3.17;;;1.00;;
52730;SDS011;38624;53.242;6.974;2022-07-12T12:46:42;0.85;;;0.82;;
52730;SDS011;38624;53.242;6.974;2022-07-12T12:49:10;1.58;;;0.77;;
52730;SDS011;38624;53.242;6.974;2022-07-12T12:54:31;3.08;;;1.10;;
52730;SDS011;38624;53.242;6.974;2022-07-12T12:56:58;1.75;;;0.88;;
52730;SDS011;38624;53.242;6.974;2022-07-12T12:59:23;1.63;;;1.00;;
52730;SDS011;38624;53.242;6.974;2022-07-12T13:01:49;2.83;;;0.98;;
52730;SDS011;38624;53.242;6.974;2022-07-12T13:04:15;3.45;;;0.80;;
52730;SDS011;38624;53.242;6.974;2022-07-12T13:06:40;1.13;;;0.77;;
52730;SDS011;38624;53.242;6.974;2022-07-12T13:09:06;0.80;;;0.80;;
52730;SDS011;38624;53.242;6.974;2022-07-12T13:13:57;1.63;;;0.70;;
52730;SDS011;38624;53.242;6.974;2022-07-12T13:16:25;1.95;;;0.80;;
52730;SDS011;38624;53.242;6.974;2022-07-12T13:21:16;0.95;;;0.73;;
52730;SDS011;38624;53.242;6.974;2022-07-12T13:26:09;2.50;;;0.70;;
52730;SDS011;38624;53.242;6.974;2022-07-12T13:28:35;0.75;;;0.55;;
52730;SDS011;38624;53.242;6.974;2022-07-12T13:33:26;0.75;;;0.57;;
52730;SDS011;38624;53.242;6.974;2022-07-12T13:35:52;2.42;;;0.60;;
52730;SDS011;38624;53.242;6.974;2022-07-12T13:38:18;2.80;;;0.60;;
52730;SDS011;38624;53.242;6.974;2022-07-12T13:40:44;0.80;;;0.80;;
52730;SDS011;38624;53.242;6.974;2022-07-12T13:43:10;0.82;;;0.77;;
52730;SDS011;38624;53.242;6.974;2022-07-12T13:45:35;1.13;;;0.70;;
52730;SDS011;38624;53.242;6.974;2022-07-12T13:48:01;1.13;;;0.70;;
52730;SDS011;38624;53.242;6.974;2022-07-12T13:50:27;1.75;;;0.75;;
52730;SDS011;38624;53.242;6.974;2022-07-12T13:52:53;2.17;;;0.73;;
52730;SDS011;38624;53.242;6.974;2022-07-12T13:55:19;2.45;;;0.88;;
52730;SDS011;38624;53.242;6.974;2022-07-12T13:57:45;1.88;;;0.70;;
52730;SDS011;38624;53.242;6.974;2022-07-12T14:00:13;1.10;;;0.80;;
52730;SDS011;38624;53.242;6.974;2022-07-12T14:02:41;1.13;;;0.80;;
52730;SDS011;38624;53.242;6.974;2022-07-12T14:05:09;2.97;;;0.70;;
52730;SDS011;38624;53.242;6.974;2022-07-12T14:07:36;0.93;;;0.80;;
52730;SDS011;38624;53.242;6.974;2022-07-12T14:10:03;3.75;;;0.80;;
52730;SDS011;38624;53.242;6.974;2022-07-12T14:12:29;1.40;;;0.90;;
52730;SDS011;38624;53.242;6.974;2022-07-12T14:17:39;2.10;;;0.88;;
52730;SDS011;38624;53.242;6.974;2022-07-12T14:20:07;1.90;;;0.82;;
52730;SDS011;38624;53.242;6.974;2022-07-12T14:22:34;0.68;;;0.68;;
52730;SDS011;38624;53.242;6.974;2022-07-12T14:25:01;2.80;;;0.75;;
52730;SDS011;38624;53.242;6.974;2022-07-12T14:27:29;1.20;;;0.80;;
52730;SDS011;38624;53.242;6.974;2022-07-12T14:29:55;1.15;;;0.80;;
52730;SDS011;38624;53.242;6.974;2022-07-12T14:34:47;1.85;;;0.80;;
52730;SDS011;38624;53.242;6.974;2022-07-12T14:39:38;1.52;;;0.70;;
52730;SDS011;38624;53.242;6.974;2022-07-12T14:42:04;3.55;;;0.82;;
52730;SDS011;38624;53.242;6.974;2022-07-12T14:44:30;1.85;;;0.80;;
52730;SDS011;38624;53.242;6.974;2022-07-12T14:46:55;1.17;;;0.60;;
52730;SDS011;38624;53.242;6.974;2022-07-12T14:49:21;1.35;;;0.90;;
52730;SDS011;38624;53.242;6.974;2022-07-12T14:51:47;0.80;;;0.80;;
52730;SDS011;38624;53.242;6.974;2022-07-12T14:54:13;3.53;;;0.90;;
52730;SDS011;38624;53.242;6.974;2022-07-12T14:56:40;2.67;;;0.90;;
52730;SDS011;38624;53.242;6.974;2022-07-12T14:59:06;3.08;;;0.88;;
52730;SDS011;38624;53.242;6.974;2022-07-12T15:01:32;0.90;;;0.90;;
52730;SDS011;38624;53.242;6.974;2022-07-12T15:03:58;1.80;;;0.73;;
52730;SDS011;38624;53.242;6.974;2022-07-12T15:06:24;0.70;;;0.70;;
52730;SDS011;38624;53.242;6.974;2022-07-12T15:08:52;1.05;;;0.80;;
52730;SDS011;38624;53.242;6.974;2022-07-12T15:11:18;1.58;;;0.68;;
52730;SDS011;38624;53.242;6.974;2022-07-12T15:13:45;1.25;;;0.80;;
52730;SDS011;38624;53.242;6.974;2022-07-12T15:16:10;1.38;;;0.85;;
52730;SDS011;38624;53.242;6.974;2022-07-12T15:18:36;2.22;;;0.80;;
52730;SDS011;38624;53.242;6.974;2022-07-12T15:21:02;1.70;;;1.08;;
52730;SDS011;38624;53.242;6.974;2022-07-12T15:23:28;1.80;;;1.20;;
52730;SDS011;38624;53.242;6.974;2022-07-12T15:25:55;0.80;;;0.70;;
52730;SDS011;38624;53.242;6.974;2022-07-12T15:28:22;1.33;;;1.00;;
52730;SDS011;38624;53.242;6.974;2022-07-12T15:30:50;5.85;;;1.00;;